Thursday, March 30, 2017, 2:26 PM EDT

KOXB, Ocean City Municipal Airport

Location: Berlin, MD, United States Lat: 38.317
Local Time: 2:26 PM EDT (18:26 GMT) Lon: -75.117
Time Zone: US/Eastern Elev: 13 ft

Show me the last for .
Show Decoded

2017-03-30 13:53 METAR KOXB 301753Z AUTO 10008KT 10SM OVC060 08/02 A3024 RMK AO2 SLP238 T00780017
                 10094 20061 58015 =
2017-03-30 12:53 METAR KOXB 301653Z AUTO 09008KT 10SM BKN065 08/01 A3026 RMK AO2 SLP245 T00830011
                 =
2017-03-30 11:53 METAR KOXB 301553Z AUTO 08008KT 10SM SCT065 09/01 A3026 RMK AO2 SLP246 T00940011
                 =
2017-03-30 10:53 METAR KOXB 301453Z AUTO 08007KT 10SM BKN060 09/01 A3028 RMK AO2 SLP253 T00890011
                 53005 =
2017-03-30 09:53 METAR KOXB 301353Z AUTO 07009KT 10SM BKN065 07/00 A3027 RMK AO2 SLP249 T00720000
                 =
2017-03-30 08:53 METAR KOXB 301253Z AUTO 06008KT 10SM BKN070 07/02 A3027 RMK AO2 SLP249 T00670017
                 =
2017-03-30 07:53 METAR KOXB 301153Z AUTO 06009KT 10SM CLR 07/01 A3026 RMK AO2 SLP248 7////
                 T00670011 10083 20056 51020 =
2017-03-30 07:29 METAR KOXB 301129Z AUTO 04009KT 10SM SCT027 06/01 A3026 RMK AO2 T00610011 =
2017-03-30 06:53 METAR KOXB 301053Z AUTO 04008KT 10SM BKN025 06/01 A3025 RMK AO2 SLP241 T00610011
                 =
2017-03-30 05:53 METAR KOXB 300953Z AUTO 04007KT 10SM CLR 06/02 A3022 RMK AO2 SLP234 T00610017 =
2017-03-30 04:53 METAR KOXB 300853Z AUTO 04009KT 10SM CLR 07/01 A3020 RMK AO2 SLP227 T00670006
                 53007 =
2017-03-30 03:53 METAR KOXB 300753Z AUTO 05008KT 10SM CLR 07/02 A3018 RMK AO2 SLP219 T00670017 =
2017-03-30 02:53 METAR KOXB 300653Z AUTO 05008KT 10SM CLR 07/02 A3018 RMK AO2 SLP218 T00720017 =
2017-03-30 01:53 METAR KOXB 300553Z AUTO 04008KT 10SM CLR 08/01 A3018 RMK AO2 SLP220 T00780011
                 10083 20033 58000 =
2017-03-30 00:53 METAR KOXB 300453Z AUTO 04006KT 10SM CLR 08/03 A3019 RMK AO2 SLP224 T00780028
                 401390033 =
2017-03-29 23:53 METAR KOXB 300353Z AUTO 36006KT 10SM CLR 04/02 A3019 RMK AO2 SLP222 T00390022 =
2017-03-29 22:53 METAR KOXB 300253Z AUTO 00000KT 10SM CLR 04/03 A3018 RMK AO2 SLP220 T00440033
                 51017 =
2017-03-29 21:53 METAR KOXB 300153Z AUTO 00000KT 10SM CLR 04/04 A3018 RMK AO2 SLP218 T00440039 =
2017-03-29 20:53 METAR KOXB 300053Z AUTO 23006KT 10SM CLR 07/05 A3016 RMK AO2 SLP214 T00720050 =
2017-03-29 19:53 METAR KOXB 292353Z AUTO 22004KT 10SM CLR 08/05 A3013 RMK AO2 SLP204 6////
                 T00830050 51021 =
2017-03-29 18:53 METAR KOXB 292253Z AUTO 22005KT 10SM CLR 09/05 A3011 RMK AO2 SLP197 T00890050 =
2017-03-29 17:53 METAR KOXB 292153Z AUTO 17005KT 10SM CLR 09/04 A3009 RMK AO2 SLP190 T00940044 =
2017-03-29 16:53 METAR KOXB 292053Z AUTO 08009KT 10SM CLR 12/04 A3007 RMK AO2 SLP182 6////
                 T01170044 56008 =
2017-03-29 15:53 METAR KOXB 291953Z AUTO 06010KT 10SM CLR 13/03 A3007 RMK AO2 SLP183 T01280033 =
2017-03-29 14:53 METAR KOXB 291853Z AUTO CLR A3008 RMK AO2 SLP187 PWINO FZRANO PNO $ =

Support USWX by starting your Amazon purchase here.